Velikiy Ustyug, Russia
Current Conditions -  °F | °C
As of 9:00 AM on Saturday 29 Nov 2014 (Local Time) from UUYY Reporting Station
Overcast Overcast  
Wind Chill: 17°   Ceiling: 1700
Heat Index: 25°   Visibility: 6mi
Dew Point: 23°   Wind: 7mph
Humidity: 93%   Direction: 240°WSW
Pressure: 30.48"   Gusts: NA
Location:  60.77°N, 46.3°E
Report Text: UUYY 290600Z 24003MPS 210V270 9999 SCT009 BKN017CB OVC066M04/M05 Q1032 TEMPO 2000 SHSN 1942//35 RMK QFE765/1020
Loading
Personal Weather Stations






























Interactive Weather Map New forecast layout! Learn more

10-Day Weather Forecast

Advertisements
Track Severe Weather on mobile